createdAt,value
2022-11-03T00:01:02.305Z,8.88
2022-11-03T00:05:24.410Z,7.47
2022-11-03T00:09:29.091Z,8.70
2022-11-03T00:13:31.125Z,13.32
2022-11-03T00:17:33.116Z,12.00
2022-11-03T00:21:35.133Z,7.07
2022-11-03T00:25:37.100Z,6.18
2022-11-03T00:29:39.110Z,5.90
2022-11-03T00:33:42.451Z,7.63
2022-11-03T00:37:44.443Z,5.57
2022-11-03T00:41:46.594Z,6.50
2022-11-03T00:45:49.462Z,6.55
2022-11-03T00:49:51.674Z,7.53
2022-11-03T00:53:56.078Z,8.88
2022-11-03T00:57:58.060Z,7.22
2022-11-03T01:02:00.255Z,9.82
2022-11-03T01:06:20.844Z,7.28
2022-11-03T01:10:23.091Z,8.80
2022-11-03T01:14:29.674Z,8.77
2022-11-03T01:18:31.660Z,7.88
2022-11-03T01:22:33.798Z,6.65
2022-11-03T01:26:36.103Z,10.70
2022-11-03T01:30:38.047Z,12.80
2022-11-03T01:34:40.548Z,7.95
2022-11-03T01:38:43.571Z,6.68
2022-11-03T01:42:45.737Z,7.53
2022-11-03T01:47:00.764Z,8.60
2022-11-03T01:51:05.897Z,7.97
2022-11-03T01:55:16.341Z,8.05
2022-11-03T01:59:21.254Z,7.28
2022-11-03T02:03:24.246Z,7.22
2022-11-03T02:07:59.174Z,5.70
2022-11-03T02:16:09.187Z,5.97
2022-11-03T02:20:16.386Z,8.82
2022-11-03T02:24:33.571Z,9.27
2022-11-03T02:28:35.735Z,7.68
2022-11-03T02:32:45.066Z,8.85
2022-11-03T02:36:53.929Z,6.80
2022-11-03T02:41:01.019Z,9.43
2022-11-03T02:45:07.597Z,7.18
2022-11-03T02:49:09.628Z,5.88
2022-11-03T02:53:13.681Z,6.78
2022-11-03T02:57:28.300Z,9.32
2022-11-03T03:01:47.470Z,7.18
2022-11-03T03:05:54.235Z,5.75
2022-11-03T03:10:01.914Z,7.57
2022-11-03T03:14:15.703Z,11.30
2022-11-03T03:18:35.281Z,7.77
2022-11-03T03:22:52.165Z,11.00
2022-11-03T03:26:59.376Z,9.43
2022-11-03T03:31:06.126Z,6.20
2022-11-03T03:35:12.981Z,6.60
2022-11-03T03:39:16.989Z,7.45
2022-11-03T03:43:21.965Z,9.75
2022-11-03T03:47:29.401Z,7.93
2022-11-03T03:51:33.913Z,8.20
2022-11-03T03:59:39.337Z,7.38
2022-11-03T04:03:41.337Z,10.27
2022-11-03T04:07:49.237Z,7.25
2022-11-03T04:12:09.585Z,5.55
2022-11-03T04:16:31.160Z,6.10
2022-11-03T04:20:52.982Z,8.43
2022-11-03T04:24:55.150Z,8.57
2022-11-03T04:28:58.159Z,5.70
2022-11-03T04:33:00.988Z,7.17
2022-11-03T04:37:05.999Z,4.28
2022-11-03T04:41:15.903Z,7.75
2022-11-03T04:45:21.162Z,7.68
2022-11-03T04:49:23.815Z,7.35
2022-11-03T04:53:30.304Z,6.35
2022-11-03T04:57:32.267Z,5.82
2022-11-03T05:01:34.422Z,5.15
2022-11-03T05:05:36.541Z,6.38
2022-11-03T05:09:41.875Z,5.88
2022-11-03T05:13:44.930Z,6.45
2022-11-03T05:17:47.196Z,6.35
2022-11-03T05:21:50.743Z,9.55
2022-11-03T05:25:58.751Z,7.20
2022-11-03T05:30:01.436Z,10.15
2022-11-03T05:34:33.378Z,8.00
2022-11-03T05:38:35.364Z,9.77
2022-11-03T05:42:45.480Z,10.48
2022-11-03T05:46:47.508Z,11.98
2022-11-03T05:50:49.790Z,10.10
2022-11-03T05:54:53.419Z,9.18
2022-11-03T05:58:57.295Z,8.60
2022-11-03T06:03:00.506Z,8.70
2022-11-03T06:07:10.813Z,12.25
2022-11-03T06:11:28.866Z,14.90
2022-11-03T06:16:09.545Z,16.50
2022-11-03T06:20:18.436Z,11.57
2022-11-03T06:24:23.373Z,10.73
2022-11-03T06:28:36.916Z,15.90
2022-11-03T06:32:38.922Z,50.72
2022-11-03T06:36:41.047Z,23.90
2022-11-03T06:40:43.056Z,13.38
2022-11-03T06:44:50.888Z,12.23
2022-11-03T06:49:02.007Z,18.83
2022-11-03T06:53:09.833Z,13.88
2022-11-03T06:57:16.103Z,11.88
2022-11-03T07:01:22.087Z,9.15
2022-11-03T07:05:27.762Z,11.25
2022-11-03T07:09:29.745Z,24.42
2022-11-03T07:13:34.721Z,19.63
2022-11-03T07:17:36.935Z,8.93
2022-11-03T07:21:53.023Z,11.43
2022-11-03T07:26:00.267Z,9.68
2022-11-03T07:30:08.514Z,12.88
2022-11-03T07:34:18.838Z,18.63
2022-11-03T07:38:22.545Z,9.25
2022-11-03T07:42:27.423Z,11.30
2022-11-03T07:46:34.957Z,13.85
2022-11-03T07:50:38.813Z,16.05
2022-11-03T07:54:41.314Z,16.98
2022-11-03T07:58:43.889Z,9.00
2022-11-03T08:02:53.442Z,9.82
2022-11-03T08:06:55.541Z,8.32
2022-11-03T08:10:57.443Z,14.57
2022-11-03T08:14:59.601Z,21.88
2022-11-03T08:19:01.637Z,23.75
2022-11-03T08:23:24.810Z,16.38
2022-11-03T08:27:27.493Z,17.35
2022-11-03T08:31:29.597Z,26.88
2022-11-03T08:35:34.038Z,28.88
2022-11-03T08:39:36.278Z,12.45
2022-11-03T08:43:38.372Z,10.77
2022-11-03T08:47:40.303Z,14.18
2022-11-03T08:51:44.669Z,12.30
2022-11-03T08:55:47.285Z,11.93
2022-11-03T08:59:49.444Z,12.73
2022-11-03T09:03:51.658Z,15.25
2022-11-03T09:12:15.849Z,19.35
2022-11-03T09:16:18.112Z,12.13
2022-11-03T09:20:21.197Z,13.70
2022-11-03T09:24:24.025Z,14.45
2022-11-03T09:28:25.981Z,13.45
2022-11-03T09:32:27.974Z,14.85
2022-11-03T09:36:30.031Z,12.38
2022-11-03T09:40:32.093Z,13.52
2022-11-03T09:44:37.394Z,12.68
2022-11-03T09:48:48.482Z,11.05
2022-11-03T09:52:55.541Z,9.65
2022-11-03T09:57:13.490Z,9.98
2022-11-03T10:01:15.720Z,13.30
2022-11-03T10:05:24.894Z,13.68
2022-11-03T10:09:29.101Z,10.68
2022-11-03T10:17:35.571Z,11.48
2022-11-03T10:21:38.988Z,7.63
2022-11-03T10:25:42.750Z,10.47
2022-11-03T10:29:48.460Z,9.10
2022-11-03T10:33:56.025Z,14.43
2022-11-03T10:38:25.694Z,13.20
2022-11-03T10:42:35.346Z,12.98
2022-11-03T10:46:54.497Z,11.50
2022-11-03T10:50:56.563Z,14.35
2022-11-03T10:54:59.510Z,15.27
2022-11-03T10:59:02.588Z,13.68
2022-11-03T11:03:06.661Z,12.38
2022-11-03T11:07:26.299Z,15.02
2022-11-03T11:11:29.048Z,12.05
2022-11-03T11:15:43.192Z,12.93
2022-11-03T11:20:30.392Z,14.32
2022-11-03T11:24:44.610Z,12.35
2022-11-03T11:29:09.106Z,15.73
2022-11-03T11:33:22.713Z,12.07
2022-11-03T11:37:24.676Z,10.60
2022-11-03T11:42:04.306Z,10.63
2022-11-03T11:46:24.649Z,14.02
2022-11-03T11:50:29.567Z,11.20
2022-11-03T11:54:31.503Z,10.48
2022-11-03T11:58:43.198Z,13.70
2022-11-03T12:02:47.747Z,16.15
2022-11-03T12:06:50.598Z,9.93
2022-11-03T12:11:00.689Z,12.43
2022-11-03T12:15:02.688Z,10.13
2022-11-03T12:19:38.828Z,10.18
2022-11-03T12:23:46.292Z,8.50
2022-11-03T12:27:48.198Z,9.65
2022-11-03T12:31:50.182Z,11.55
2022-11-03T12:35:52.471Z,9.88
2022-11-03T12:39:54.509Z,9.50
2022-11-03T12:43:56.552Z,10.52
2022-11-03T12:47:58.620Z,10.38
2022-11-03T12:52:08.167Z,10.57
2022-11-03T12:56:11.366Z,12.27
2022-11-03T13:00:14.519Z,10.60
2022-11-03T13:04:16.783Z,10.40
2022-11-03T13:12:32.726Z,7.32
2022-11-03T13:16:35.737Z,10.88
2022-11-03T13:20:38.006Z,9.95
2022-11-03T13:24:40.020Z,11.63
2022-11-03T13:28:42.134Z,11.13
2022-11-03T13:32:44.216Z,10.65
2022-11-03T13:36:46.169Z,8.30
2022-11-03T13:40:56.633Z,10.77
2022-11-03T13:45:00.826Z,12.13
2022-11-03T14:06:32.802Z,8.18
2022-11-03T14:10:35.651Z,7.47
2022-11-03T14:14:37.781Z,10.23
2022-11-03T14:18:39.861Z,23.10
2022-11-03T14:22:41.931Z,10.73
2022-11-03T14:26:44.062Z,11.55
2022-11-03T14:30:46.275Z,6.95
2022-11-03T14:34:48.718Z,9.43
2022-11-03T14:38:51.645Z,7.35
2022-11-03T14:42:53.670Z,8.25
2022-11-03T14:46:55.658Z,10.82
2022-11-03T14:50:57.747Z,8.02
2022-11-03T14:54:59.749Z,6.80
2022-11-03T14:59:01.700Z,11.57
2022-11-03T15:03:05.094Z,8.65
2022-11-03T15:07:07.269Z,7.68
2022-11-03T15:11:10.534Z,7.32
2022-11-03T15:15:12.546Z,4.83
2022-11-03T15:19:14.523Z,6.78
2022-11-03T15:27:39.666Z,11.80
2022-11-03T15:31:47.208Z,9.70
2022-11-03T15:35:50.184Z,21.42
2022-11-03T15:39:54.655Z,21.17
2022-11-03T15:44:00.611Z,17.25
2022-11-03T15:48:02.913Z,20.50
2022-11-03T15:52:05.278Z,24.92
2022-11-03T15:56:07.796Z,26.45
2022-11-03T16:00:11.939Z,17.85
2022-11-03T16:04:16.207Z,18.98
2022-11-03T16:08:18.469Z,18.40
2022-11-03T16:12:20.563Z,23.80
2022-11-03T16:16:22.482Z,25.25
2022-11-03T16:20:27.160Z,25.77
2022-11-03T16:24:34.853Z,23.30
2022-11-03T16:28:37.734Z,59.60
2022-11-03T16:32:39.849Z,70.20
2022-11-03T16:36:42.091Z,60.10
2022-11-03T16:40:44.592Z,63.90
2022-11-03T16:44:48.023Z,30.70
2022-11-03T16:48:50.497Z,42.20
2022-11-03T16:52:52.619Z,43.13
2022-11-03T16:56:55.190Z,30.40
2022-11-03T17:00:57.311Z,26.33
2022-11-03T17:04:59.353Z,21.67
2022-11-03T17:09:01.751Z,18.33
2022-11-03T17:13:09.081Z,17.52
2022-11-03T17:17:12.237Z,11.18
2022-11-03T17:21:14.235Z,14.90
2022-11-03T17:25:16.250Z,16.83
2022-11-03T17:29:22.613Z,14.07
2022-11-03T17:33:24.665Z,22.23
2022-11-03T17:37:27.493Z,20.15
2022-11-03T17:41:29.577Z,21.25
2022-11-03T17:45:31.970Z,23.25
2022-11-03T17:49:33.913Z,20.17
2022-11-03T17:53:36.047Z,31.30
2022-11-03T17:57:38.065Z,33.88
2022-11-03T18:01:40.199Z,31.48
2022-11-03T18:05:42.488Z,35.75
2022-11-03T18:09:44.607Z,34.13
2022-11-03T18:13:46.795Z,26.92
2022-11-03T18:17:49.268Z,44.33
2022-11-03T18:21:51.342Z,41.88
2022-11-03T18:25:54.209Z,33.70
2022-11-03T18:29:56.442Z,36.80
2022-11-03T18:34:00.175Z,39.03
2022-11-03T18:38:05.543Z,40.22
2022-11-03T18:42:14.460Z,32.05
2022-11-03T18:46:16.436Z,47.92
2022-11-03T18:50:18.902Z,36.20
2022-11-03T18:54:23.481Z,31.58
2022-11-03T18:58:25.586Z,37.67
2022-11-03T19:02:28.457Z,34.45
2022-11-03T19:06:30.732Z,42.33
2022-11-03T19:10:33.561Z,45.97
2022-11-03T19:14:39.521Z,30.10
2022-11-03T19:18:42.545Z,24.80
2022-11-03T19:22:45.722Z,30.90
2022-11-03T19:27:00.074Z,24.63
2022-11-03T19:31:02.179Z,17.70
2022-11-03T19:35:17.127Z,18.50
2022-11-03T19:39:26.978Z,17.17
2022-11-03T19:43:34.359Z,16.17
2022-11-03T19:48:10.624Z,20.05
2022-11-03T19:52:17.224Z,12.35
2022-11-03T19:56:20.499Z,14.10
2022-11-03T20:00:22.666Z,14.55
2022-11-03T20:04:24.816Z,17.35
2022-11-03T20:08:29.557Z,20.30
2022-11-03T20:12:31.712Z,20.90
2022-11-03T20:16:33.753Z,13.80
2022-11-03T20:20:36.646Z,14.45
2022-11-03T20:24:39.787Z,16.75
2022-11-03T20:28:42.209Z,12.75
2022-11-03T20:32:46.122Z,16.35
2022-11-03T20:36:48.532Z,15.38
2022-11-03T20:40:58.219Z,9.70
2022-11-03T20:45:00.171Z,12.65
2022-11-03T20:49:02.129Z,11.98
2022-11-03T20:53:11.626Z,11.05
2022-11-03T20:57:14.368Z,11.43
2022-11-03T21:01:25.113Z,8.70
2022-11-03T21:05:28.240Z,8.55
2022-11-03T21:09:30.397Z,9.63
2022-11-03T21:13:32.906Z,7.55
2022-11-03T21:18:10.155Z,9.52
2022-11-03T21:22:50.856Z,9.98
2022-11-03T21:26:46.815Z,7.57
2022-11-03T21:30:51.605Z,18.13
2022-11-03T21:34:54.994Z,8.90
2022-11-03T21:38:57.048Z,8.48
2022-11-03T21:43:17.788Z,7.95
2022-11-03T21:47:21.298Z,7.95
2022-11-03T21:51:24.236Z,6.90
2022-11-03T21:55:26.357Z,6.97
2022-11-03T21:59:28.413Z,6.32
2022-11-03T22:03:31.395Z,10.38
2022-11-03T22:07:33.355Z,6.72
2022-11-03T22:11:35.333Z,6.50
2022-11-03T22:15:55.941Z,6.47
2022-11-03T22:20:16.601Z,8.70
2022-11-03T22:24:50.943Z,7.05
2022-11-03T22:29:12.847Z,6.70
2022-11-03T22:33:14.778Z,10.00
2022-11-03T22:37:16.713Z,5.38
2022-11-03T22:41:37.196Z,5.95
2022-11-03T22:45:57.545Z,10.05
2022-11-03T22:49:59.477Z,5.82
2022-11-03T22:54:10.858Z,8.27
2022-11-03T22:58:13.024Z,4.97
2022-11-03T23:02:15.101Z,6.10
2022-11-03T23:06:19.570Z,5.22
2022-11-03T23:10:28.217Z,6.53
2022-11-03T23:14:50.180Z,8.90
2022-11-03T23:19:11.373Z,6.47
2022-11-03T23:23:33.323Z,5.57
2022-11-03T23:27:35.441Z,13.10
2022-11-03T23:31:37.622Z,9.85
2022-11-03T23:35:40.446Z,8.18
2022-11-03T23:39:42.474Z,6.00
2022-11-03T23:43:45.638Z,7.45
2022-11-03T23:48:07.464Z,5.10
2022-11-03T23:52:09.943Z,6.30
2022-11-03T23:56:32.329Z,6.05
